createdAt,value
2024-03-30T00:00:23.000Z,205.0
2024-03-30T00:00:39.000Z,202.0
2024-03-30T00:01:14.000Z,214.0
2024-03-30T00:01:43.000Z,207.0
2024-03-30T00:01:59.000Z,174.0
2024-03-30T00:02:35.000Z,188.0
2024-03-30T00:03:04.000Z,167.0
2024-03-30T00:03:38.000Z,177.0
2024-03-30T00:04:09.000Z,190.0
2024-03-30T00:04:31.000Z,207.0
2024-03-30T00:05:00.000Z,221.0
2024-03-30T00:05:31.000Z,195.0
2024-03-30T00:06:04.000Z,195.0
2024-03-30T00:06:44.000Z,198.0
2024-03-30T00:07:07.000Z,206.0
2024-03-30T00:07:34.000Z,208.0
2024-03-30T00:07:57.000Z,207.0
2024-03-30T00:08:24.000Z,207.0
2024-03-30T00:09:00.000Z,207.0
2024-03-30T00:09:39.000Z,198.0
2024-03-30T00:10:00.000Z,203.0
2024-03-30T00:10:34.000Z,203.0
2024-03-30T00:11:05.000Z,202.0
2024-03-30T00:11:30.000Z,202.0
2024-03-30T00:11:54.000Z,202.0
2024-03-30T00:12:24.000Z,202.0
2024-03-30T00:13:00.000Z,202.0
2024-03-30T00:13:29.000Z,202.0
2024-03-30T00:14:00.000Z,202.0
2024-03-30T00:14:35.000Z,202.0
2024-03-30T00:15:05.000Z,201.0
2024-03-30T00:15:38.000Z,184.0
2024-03-30T00:16:09.000Z,179.0
2024-03-30T00:16:31.000Z,178.0
2024-03-30T00:17:00.000Z,177.0
2024-03-30T00:17:29.000Z,176.0
2024-03-30T00:17:59.000Z,176.0
2024-03-30T00:18:34.000Z,176.0
2024-03-30T00:19:05.000Z,176.0
2024-03-30T00:19:30.000Z,176.0
2024-03-30T00:19:56.000Z,176.0
2024-03-30T00:20:23.000Z,176.0
2024-03-30T00:20:49.000Z,175.0
2024-03-30T00:21:16.000Z,166.0
2024-03-30T00:21:39.000Z,156.0
2024-03-30T00:22:05.000Z,155.0
2024-03-30T00:22:35.000Z,151.0
2024-03-30T00:23:05.000Z,150.0
2024-03-30T00:23:30.000Z,146.0
2024-03-30T00:23:54.000Z,131.0
2024-03-30T00:24:25.000Z,160.0
2024-03-30T00:25:00.000Z,164.0
2024-03-30T00:25:29.000Z,164.0
2024-03-30T00:26:00.000Z,156.0
2024-03-30T00:26:44.000Z,157.0
2024-03-30T00:27:07.000Z,165.0
2024-03-30T00:27:34.000Z,159.0
2024-03-30T00:27:57.000Z,164.0
2024-03-30T00:28:24.000Z,165.0
2024-03-30T00:29:00.000Z,166.0
2024-03-30T00:29:39.000Z,176.0
2024-03-30T00:30:02.000Z,189.0
2024-03-30T00:30:30.000Z,190.0
2024-03-30T00:30:59.000Z,192.0
2024-03-30T00:31:29.000Z,191.0
2024-03-30T00:31:56.000Z,191.0
2024-03-30T00:32:23.000Z,191.0
2024-03-30T00:32:40.000Z,192.0
2024-03-30T00:33:14.000Z,192.0
2024-03-30T00:33:43.000Z,203.0
2024-03-30T00:33:59.000Z,201.0
2024-03-30T00:34:35.000Z,196.0
2024-03-30T00:35:05.000Z,185.0
2024-03-30T00:35:30.000Z,185.0
2024-03-30T00:35:54.000Z,179.0
2024-03-30T00:36:24.000Z,179.0
2024-03-30T00:37:00.000Z,178.0
2024-03-30T00:37:39.000Z,174.0
2024-03-30T00:37:59.000Z,174.0
2024-03-30T00:38:34.000Z,174.0
2024-03-30T00:39:05.000Z,173.0
2024-03-30T00:39:30.000Z,173.0
2024-03-30T00:39:54.000Z,172.0
2024-03-30T00:40:24.000Z,171.0
2024-03-30T00:41:00.000Z,171.0
2024-03-30T00:41:29.000Z,171.0
2024-03-30T00:42:00.000Z,170.0
2024-03-30T00:42:34.000Z,178.0
2024-03-30T00:43:03.000Z,178.0
2024-03-30T00:43:29.000Z,178.0
2024-03-30T00:43:56.000Z,178.0
2024-03-30T00:44:23.000Z,177.0
2024-03-30T00:44:49.000Z,177.0
2024-03-30T00:45:16.000Z,173.0
2024-03-30T00:45:39.000Z,164.0
2024-03-30T00:46:02.000Z,164.0
2024-03-30T00:46:30.000Z,164.0
2024-03-30T00:46:59.000Z,161.0
2024-03-30T00:47:29.000Z,118.0
2024-03-30T00:47:56.000Z,123.0
2024-03-30T00:48:23.000Z,97.0
2024-03-30T00:48:49.000Z,152.0
2024-03-30T00:49:16.000Z,150.0
2024-03-30T00:49:39.000Z,150.0
2024-03-30T00:50:02.000Z,158.0
2024-03-30T00:50:30.000Z,159.0
2024-03-30T00:50:59.000Z,137.0
2024-03-30T00:51:20.000Z,115.0
2024-03-30T00:51:54.000Z,130.0
2024-03-30T00:52:24.000Z,140.0
2024-03-30T00:53:00.000Z,136.0
2024-03-30T00:53:30.000Z,132.0
2024-03-30T00:53:59.000Z,161.0
2024-03-30T00:54:34.000Z,165.0
2024-03-30T00:55:05.000Z,165.0
2024-03-30T00:55:30.000Z,165.0
2024-03-30T00:55:55.000Z,164.0
2024-03-30T00:56:24.000Z,165.0
2024-03-30T00:57:00.000Z,166.0
2024-03-30T00:57:30.000Z,178.0
2024-03-30T00:57:59.000Z,178.0
2024-03-30T00:58:20.000Z,178.0
2024-03-30T00:58:49.000Z,187.0
2024-03-30T00:59:19.000Z,191.0
2024-03-30T00:59:40.000Z,192.0
2024-03-30T01:00:09.000Z,184.0
2024-03-30T01:00:31.000Z,183.0
2024-03-30T01:00:59.000Z,166.0
2024-03-30T01:01:27.000Z,166.0
2024-03-30T01:01:50.000Z,166.0
2024-03-30T01:02:19.000Z,166.0
2024-03-30T01:02:49.000Z,167.0
2024-03-30T01:03:19.000Z,167.0
2024-03-30T01:03:54.000Z,167.0
2024-03-30T01:04:25.000Z,165.0
2024-03-30T01:04:59.000Z,165.0
2024-03-30T01:05:29.000Z,165.0
2024-03-30T01:05:59.000Z,165.0
2024-03-30T01:06:35.000Z,166.0
2024-03-30T01:07:04.000Z,142.0
2024-03-30T01:07:30.000Z,144.0
2024-03-30T01:07:55.000Z,146.0
2024-03-30T01:08:23.000Z,153.0
2024-03-30T01:08:49.000Z,143.0
2024-03-30T01:09:15.000Z,147.0
2024-03-30T01:09:39.000Z,152.0
2024-03-30T01:10:02.000Z,155.0
2024-03-30T01:10:30.000Z,157.0
2024-03-30T01:10:59.000Z,160.0
2024-03-30T01:11:29.000Z,160.0
2024-03-30T01:11:55.000Z,167.0
2024-03-30T01:12:23.000Z,177.0
2024-03-30T01:12:49.000Z,178.0
2024-03-30T01:13:16.000Z,179.0
2024-03-30T01:13:39.000Z,183.0
2024-03-30T01:14:02.000Z,196.0
2024-03-30T01:14:30.000Z,211.0
2024-03-30T01:14:59.000Z,229.0
2024-03-30T01:15:29.000Z,232.0
2024-03-30T01:15:55.000Z,227.0
2024-03-30T01:16:24.000Z,224.0
2024-03-30T01:17:00.000Z,223.0
2024-03-30T01:17:29.000Z,213.0
2024-03-30T01:17:59.000Z,210.0
2024-03-30T01:18:20.000Z,212.0
2024-03-30T01:18:49.000Z,210.0
2024-03-30T01:19:19.000Z,210.0
2024-03-30T01:19:40.000Z,209.0
2024-03-30T01:20:09.000Z,209.0
2024-03-30T01:20:31.000Z,209.0
2024-03-30T01:20:59.000Z,209.0
2024-03-30T01:21:29.000Z,202.0
2024-03-30T01:21:59.000Z,194.0
2024-03-30T01:22:34.000Z,192.0
2024-03-30T01:23:04.000Z,187.0
2024-03-30T01:23:30.000Z,184.0
2024-03-30T01:23:54.000Z,183.0
2024-03-30T01:24:24.000Z,182.0
2024-03-30T01:24:59.000Z,182.0
2024-03-30T01:25:29.000Z,182.0
2024-03-30T01:26:01.000Z,182.0
2024-03-30T01:26:30.000Z,182.0
2024-03-30T01:26:59.000Z,180.0
2024-03-30T01:27:29.000Z,180.0
2024-03-30T01:27:56.000Z,180.0
2024-03-30T01:28:23.000Z,180.0
2024-03-30T01:28:49.000Z,180.0
2024-03-30T01:29:14.000Z,180.0
2024-03-30T01:29:43.000Z,180.0
2024-03-30T01:30:00.000Z,180.0
2024-03-30T01:30:35.000Z,180.0
2024-03-30T01:31:05.000Z,180.0
2024-03-30T01:31:31.000Z,180.0
2024-03-30T01:31:54.000Z,180.0
2024-03-30T01:32:24.000Z,179.0
2024-03-30T01:32:59.000Z,178.0
2024-03-30T01:33:29.000Z,167.0
2024-03-30T01:34:09.000Z,144.0
2024-03-30T01:34:35.000Z,132.0
2024-03-30T01:35:05.000Z,127.0
2024-03-30T01:35:30.000Z,118.0
2024-03-30T01:35:55.000Z,123.0
2024-03-30T01:36:24.000Z,124.0
2024-03-30T01:37:00.000Z,115.0
2024-03-30T01:37:30.000Z,110.0
2024-03-30T01:37:59.000Z,113.0
2024-03-30T01:38:34.000Z,114.0
2024-03-30T01:39:05.000Z,114.0
2024-03-30T01:39:30.000Z,118.0
2024-03-30T01:39:51.000Z,129.0
2024-03-30T01:40:19.000Z,134.0
2024-03-30T01:40:49.000Z,133.0
2024-03-30T01:41:14.000Z,134.0
2024-03-30T01:41:43.000Z,127.0
2024-03-30T01:41:59.000Z,104.0
2024-03-30T01:42:35.000Z,120.0
2024-03-30T01:43:05.000Z,125.0
2024-03-30T01:43:30.000Z,120.0
2024-03-30T01:43:54.000Z,124.0
2024-03-30T01:44:25.000Z,119.0
2024-03-30T01:45:00.000Z,119.0
2024-03-30T01:45:29.000Z,116.0
2024-03-30T01:46:00.000Z,104.0
2024-03-30T01:46:44.000Z,119.0
2024-03-30T01:47:07.000Z,104.0
2024-03-30T01:47:34.000Z,118.0
2024-03-30T01:47:54.000Z,97.0
2024-03-30T01:48:24.000Z,126.0
2024-03-30T01:49:00.000Z,114.0
2024-03-30T01:49:29.000Z,144.0
2024-03-30T01:50:00.000Z,152.0
2024-03-30T01:50:34.000Z,145.0
2024-03-30T01:51:05.000Z,149.0
2024-03-30T01:51:30.000Z,102.0
2024-03-30T01:51:54.000Z,153.0
2024-03-30T01:52:24.000Z,161.0
2024-03-30T01:53:00.000Z,162.0
2024-03-30T01:53:29.000Z,162.0
2024-03-30T01:54:00.000Z,127.0
2024-03-30T01:54:34.000Z,128.0
2024-03-30T01:55:04.000Z,147.0
2024-03-30T01:55:30.000Z,146.0
2024-03-30T01:55:54.000Z,138.0
2024-03-30T01:56:24.000Z,97.0
2024-03-30T01:57:00.000Z,154.0
2024-03-30T01:57:29.000Z,144.0
2024-03-30T01:58:09.000Z,146.0
2024-03-30T01:58:36.000Z,96.0
2024-03-30T01:59:07.000Z,78.0
2024-03-30T01:59:31.000Z,89.0
2024-03-30T01:59:54.000Z,136.0
2024-03-30T02:00:24.000Z,157.0
2024-03-30T02:01:00.000Z,152.0
2024-03-30T02:01:29.000Z,82.0
2024-03-30T02:01:59.000Z,156.0
2024-03-30T02:02:34.000Z,160.0
2024-03-30T02:03:05.000Z,161.0
2024-03-30T02:03:38.000Z,84.0
2024-03-30T02:04:09.000Z,141.0
2024-03-30T02:04:32.000Z,143.0
2024-03-30T02:04:59.000Z,144.0
2024-03-30T02:05:30.000Z,134.0
2024-03-30T02:05:59.000Z,145.0
2024-03-30T02:06:34.000Z,146.0
2024-03-30T02:07:05.000Z,109.0
2024-03-30T02:07:38.000Z,112.0
2024-03-30T02:08:10.000Z,118.0
2024-03-30T02:08:31.000Z,139.0
2024-03-30T02:09:00.000Z,156.0
2024-03-30T02:09:30.000Z,154.0
2024-03-30T02:09:59.000Z,152.0
2024-03-30T02:10:36.000Z,137.0
2024-03-30T02:11:06.000Z,90.0
2024-03-30T02:11:31.000Z,127.0
2024-03-30T02:11:55.000Z,163.0
2024-03-30T02:12:25.000Z,82.0
2024-03-30T02:13:00.000Z,150.0
2024-03-30T02:13:29.000Z,162.0
2024-03-30T02:13:59.000Z,154.0
2024-03-30T02:14:20.000Z,139.0
2024-03-30T02:14:49.000Z,147.0
2024-03-30T02:15:20.000Z,94.0
2024-03-30T02:15:54.000Z,124.0
2024-03-30T02:16:34.000Z,123.0
2024-03-30T02:16:59.000Z,65.0
2024-03-30T02:17:27.000Z,159.0
2024-03-30T02:17:51.000Z,109.0
2024-03-30T02:18:19.000Z,85.0
2024-03-30T02:18:44.000Z,141.0
2024-03-30T02:19:07.000Z,137.0
2024-03-30T02:19:34.000Z,152.0
2024-03-30T02:19:57.000Z,147.0
2024-03-30T02:20:24.000Z,154.0
2024-03-30T02:20:59.000Z,190.0
2024-03-30T02:21:29.000Z,123.0
2024-03-30T02:21:59.000Z,142.0
2024-03-30T02:22:20.000Z,116.0
2024-03-30T02:22:49.000Z,88.0
2024-03-30T02:23:20.000Z,93.0
2024-03-30T02:23:54.000Z,130.0
2024-03-30T02:24:24.000Z,92.0
2024-03-30T02:25:00.000Z,53.0
2024-03-30T02:25:29.000Z,144.0
2024-03-30T02:26:09.000Z,74.0
2024-03-30T02:26:36.000Z,83.0
2024-03-30T02:27:06.000Z,113.0
2024-03-30T02:27:30.000Z,153.0
2024-03-30T02:27:56.000Z,80.0
2024-03-30T02:28:23.000Z,49.0
2024-03-30T02:28:49.000Z,93.0
2024-03-30T02:29:16.000Z,99.0
2024-03-30T02:29:39.000Z,110.0
2024-03-30T02:30:02.000Z,175.0
2024-03-30T02:30:30.000Z,72.0
2024-03-30T02:30:59.000Z,61.0
2024-03-30T02:31:29.000Z,153.0
2024-03-30T02:31:56.000Z,89.0
2024-03-30T02:32:23.000Z,97.0
2024-03-30T02:32:49.000Z,111.0
2024-03-30T02:33:16.000Z,73.0
2024-03-30T02:33:39.000Z,86.0
2024-03-30T02:34:02.000Z,108.0
2024-03-30T02:34:30.000Z,112.0
2024-03-30T02:34:50.000Z,104.0
2024-03-30T02:35:19.000Z,96.0
2024-03-30T02:35:40.000Z,132.0
2024-03-30T02:36:10.000Z,115.0
2024-03-30T02:36:31.000Z,45.0
2024-03-30T02:37:00.000Z,120.0
2024-03-30T02:37:30.000Z,151.0
2024-03-30T02:37:59.000Z,154.0
2024-03-30T02:38:15.000Z,157.0
2024-03-30T02:38:49.000Z,160.0
2024-03-30T02:39:20.000Z,143.0
2024-03-30T02:39:40.000Z,123.0
2024-03-30T02:40:10.000Z,147.0
2024-03-30T02:40:31.000Z,152.0
2024-03-30T02:41:00.000Z,153.0
2024-03-30T02:41:30.000Z,143.0
2024-03-30T02:42:00.000Z,131.0
2024-03-30T02:42:19.000Z,106.0
2024-03-30T02:42:49.000Z,128.0
2024-03-30T02:43:20.000Z,73.0
2024-03-30T02:43:55.000Z,79.0
2024-03-30T02:44:25.000Z,115.0
2024-03-30T02:45:09.000Z,106.0
2024-03-30T02:45:39.000Z,138.0
2024-03-30T02:46:02.000Z,135.0
2024-03-30T02:46:30.000Z,124.0
2024-03-30T02:46:59.000Z,129.0
2024-03-30T02:47:29.000Z,160.0
2024-03-30T02:47:56.000Z,141.0
2024-03-30T02:48:23.000Z,121.0
2024-03-30T02:48:59.000Z,140.0
2024-03-30T02:49:39.000Z,139.0
2024-03-30T02:50:02.000Z,129.0
2024-03-30T02:50:30.000Z,100.0
2024-03-30T02:50:59.000Z,115.0
2024-03-30T02:51:29.000Z,145.0
2024-03-30T02:51:56.000Z,123.0
2024-03-30T02:52:23.000Z,145.0
2024-03-30T02:52:49.000Z,154.0
2024-03-30T02:53:16.000Z,129.0
2024-03-30T02:53:45.000Z,80.0
2024-03-30T02:54:15.000Z,112.0
2024-03-30T02:54:49.000Z,146.0
2024-03-30T02:55:19.000Z,140.0
2024-03-30T02:55:54.000Z,49.0
2024-03-30T02:56:24.000Z,137.0
2024-03-30T02:56:59.000Z,104.0
2024-03-30T02:57:29.000Z,91.0
2024-03-30T02:57:59.000Z,109.0
2024-03-30T02:58:36.000Z,94.0
2024-03-30T02:59:07.000Z,129.0
2024-03-30T02:59:34.000Z,134.0
2024-03-30T02:59:57.000Z,100.0
2024-03-30T03:00:24.000Z,81.0
2024-03-30T03:01:00.000Z,154.0
2024-03-30T03:01:30.000Z,142.0
2024-03-30T03:01:59.000Z,104.0
2024-03-30T03:02:35.000Z,133.0
2024-03-30T03:03:04.000Z,153.0
2024-03-30T03:03:38.000Z,126.0
2024-03-30T03:04:09.000Z,98.0
2024-03-30T03:04:31.000Z,84.0
2024-03-30T03:05:00.000Z,81.0
2024-03-30T03:05:31.000Z,86.0
2024-03-30T03:06:04.000Z,110.0
2024-03-30T03:06:44.000Z,105.0
2024-03-30T03:07:07.000Z,68.0
2024-03-30T03:07:34.000Z,64.0
2024-03-30T03:07:54.000Z,102.0
2024-03-30T03:08:24.000Z,53.0
2024-03-30T03:09:00.000Z,49.0
2024-03-30T03:09:29.000Z,79.0
2024-03-30T03:09:59.000Z,135.0
2024-03-30T03:10:34.000Z,144.0
2024-03-30T03:11:05.000Z,97.0
2024-03-30T03:11:30.000Z,62.0
2024-03-30T03:11:54.000Z,67.0
2024-03-30T03:12:24.000Z,147.0
2024-03-30T03:12:59.000Z,130.0
2024-03-30T03:13:39.000Z,97.0
2024-03-30T03:14:03.000Z,55.0
2024-03-30T03:14:35.000Z,33.0
2024-03-30T03:15:05.000Z,122.0
2024-03-30T03:15:38.000Z,154.0
2024-03-30T03:16:09.000Z,67.0
2024-03-30T03:16:31.000Z,111.0
2024-03-30T03:16:59.000Z,83.0
2024-03-30T03:17:29.000Z,144.0
2024-03-30T03:17:59.000Z,164.0
2024-03-30T03:18:35.000Z,169.0
2024-03-30T03:19:04.000Z,144.0
2024-03-30T03:19:30.000Z,78.0
2024-03-30T03:19:56.000Z,85.0
2024-03-30T03:20:23.000Z,94.0
2024-03-30T03:20:49.000Z,119.0
2024-03-30T03:21:16.000Z,140.0
2024-03-30T03:21:39.000Z,145.0
2024-03-30T03:22:00.000Z,77.0
2024-03-30T03:22:34.000Z,112.0
2024-03-30T03:23:04.000Z,99.0
2024-03-30T03:23:30.000Z,93.0
2024-03-30T03:23:54.000Z,24.0
2024-03-30T03:24:24.000Z,352.0
2024-03-30T03:25:00.000Z,299.0
2024-03-30T03:25:30.000Z,321.0
2024-03-30T03:25:59.000Z,332.0
2024-03-30T03:26:35.000Z,331.0
2024-03-30T03:27:05.000Z,305.0
2024-03-30T03:27:38.000Z,11.0
2024-03-30T03:28:09.000Z,48.0
2024-03-30T03:28:31.000Z,46.0
2024-03-30T03:29:00.000Z,348.0
2024-03-30T03:29:30.000Z,42.0
2024-03-30T03:29:59.000Z,68.0
2024-03-30T03:30:34.000Z,28.0
2024-03-30T03:31:05.000Z,68.0
2024-03-30T03:31:30.000Z,77.0
2024-03-30T03:31:54.000Z,46.0
2024-03-30T03:32:26.000Z,60.0
2024-03-30T03:33:00.000Z,110.0
2024-03-30T03:33:30.000Z,156.0
2024-03-30T03:33:59.000Z,145.0
2024-03-30T03:34:35.000Z,155.0
2024-03-30T03:35:05.000Z,122.0
2024-03-30T03:35:30.000Z,89.0
2024-03-30T03:35:54.000Z,128.0
2024-03-30T03:36:24.000Z,100.0
2024-03-30T03:36:59.000Z,91.0
2024-03-30T03:37:29.000Z,143.0
2024-03-30T03:38:09.000Z,139.0
2024-03-30T03:38:36.000Z,86.0
2024-03-30T03:39:06.000Z,118.0
2024-03-30T03:39:30.000Z,140.0
2024-03-30T03:39:56.000Z,96.0
2024-03-30T03:40:23.000Z,82.0
2024-03-30T03:40:40.000Z,70.0
2024-03-30T03:41:14.000Z,104.0
2024-03-30T03:41:30.000Z,55.0
2024-03-30T03:41:59.000Z,104.0
2024-03-30T03:42:15.000Z,85.0
2024-03-30T03:42:50.000Z,88.0
2024-03-30T03:43:20.000Z,118.0
2024-03-30T03:43:40.000Z,98.0
2024-03-30T03:44:09.000Z,77.0
2024-03-30T03:44:31.000Z,59.0
2024-03-30T03:45:00.000Z,59.0
2024-03-30T03:45:39.000Z,152.0
2024-03-30T03:46:02.000Z,153.0
2024-03-30T03:46:34.000Z,96.0
2024-03-30T03:47:05.000Z,82.0
2024-03-30T03:47:30.000Z,78.0
2024-03-30T03:47:54.000Z,138.0
2024-03-30T03:48:24.000Z,125.0
2024-03-30T03:49:00.000Z,46.0
2024-03-30T03:49:29.000Z,70.0
2024-03-30T03:50:00.000Z,111.0
2024-03-30T03:50:15.000Z,137.0
2024-03-30T03:50:49.000Z,80.0
2024-03-30T03:51:20.000Z,71.0
2024-03-30T03:51:40.000Z,101.0
2024-03-30T03:52:09.000Z,78.0
2024-03-30T03:52:31.000Z,113.0
2024-03-30T03:53:00.000Z,49.0
2024-03-30T03:53:29.000Z,82.0
2024-03-30T03:54:00.000Z,54.0
2024-03-30T03:54:35.000Z,62.0
2024-03-30T03:55:05.000Z,95.0
2024-03-30T03:55:30.000Z,105.0
2024-03-30T03:55:55.000Z,146.0
2024-03-30T03:56:34.000Z,110.0
2024-03-30T03:56:59.000Z,46.0
2024-03-30T03:57:27.000Z,113.0
2024-03-30T03:57:43.000Z,133.0
2024-03-30T03:58:00.000Z,147.0
2024-03-30T03:58:35.000Z,148.0
2024-03-30T03:59:05.000Z,135.0
2024-03-30T03:59:30.000Z,139.0
2024-03-30T03:59:54.000Z,138.0
2024-03-30T04:00:25.000Z,114.0
2024-03-30T04:00:59.000Z,85.0
2024-03-30T04:01:30.000Z,137.0
2024-03-30T04:01:59.000Z,142.0
2024-03-30T04:02:35.000Z,143.0
2024-03-30T04:03:03.000Z,133.0
2024-03-30T04:03:20.000Z,141.0
2024-03-30T04:03:55.000Z,142.0
2024-03-30T04:04:25.000Z,97.0
2024-03-30T04:05:00.000Z,104.0
2024-03-30T04:05:30.000Z,105.0
2024-03-30T04:06:00.000Z,126.0
2024-03-30T04:06:35.000Z,127.0
2024-03-30T04:07:05.000Z,109.0
2024-03-30T04:07:30.000Z,115.0
2024-03-30T04:07:55.000Z,87.0
2024-03-30T04:08:24.000Z,65.0
2024-03-30T04:09:09.000Z,122.0
2024-03-30T04:09:30.000Z,112.0
2024-03-30T04:09:59.000Z,111.0
2024-03-30T04:10:35.000Z,116.0
2024-03-30T04:11:04.000Z,116.0
2024-03-30T04:11:30.000Z,135.0
2024-03-30T04:11:54.000Z,85.0
2024-03-30T04:12:24.000Z,158.0
2024-03-30T04:13:00.000Z,87.0
2024-03-30T04:13:29.000Z,74.0
2024-03-30T04:14:00.000Z,111.0
2024-03-30T04:14:30.000Z,151.0
2024-03-30T04:14:49.000Z,148.0
2024-03-30T04:15:25.000Z,160.0
2024-03-30T04:16:04.000Z,130.0
2024-03-30T04:16:34.000Z,170.0
2024-03-30T04:16:59.000Z,169.0
2024-03-30T04:17:27.000Z,156.0
2024-03-30T04:17:51.000Z,166.0
2024-03-30T04:18:15.000Z,177.0
2024-03-30T04:18:49.000Z,176.0
2024-03-30T04:19:20.000Z,176.0
2024-03-30T04:19:54.000Z,176.0
2024-03-30T04:20:24.000Z,176.0
2024-03-30T04:21:00.000Z,178.0
2024-03-30T04:21:30.000Z,177.0
2024-03-30T04:22:00.000Z,156.0
2024-03-30T04:22:35.000Z,168.0
2024-03-30T04:23:14.000Z,137.0
2024-03-30T04:23:41.000Z,129.0
2024-03-30T04:24:10.000Z,120.0
2024-03-30T04:24:31.000Z,142.0
2024-03-30T04:25:00.000Z,148.0
2024-03-30T04:25:29.000Z,158.0
2024-03-30T04:25:59.000Z,155.0
2024-03-30T04:26:35.000Z,156.0
2024-03-30T04:27:05.000Z,165.0
2024-03-30T04:27:30.000Z,171.0
2024-03-30T04:27:54.000Z,98.0
2024-03-30T04:28:24.000Z,160.0
2024-03-30T04:29:09.000Z,161.0
2024-03-30T04:29:39.000Z,163.0
2024-03-30T04:30:02.000Z,172.0
2024-03-30T04:30:34.000Z,172.0
2024-03-30T04:31:05.000Z,172.0
2024-03-30T04:31:38.000Z,174.0
2024-03-30T04:32:09.000Z,176.0
2024-03-30T04:32:31.000Z,176.0
2024-03-30T04:33:00.000Z,177.0
2024-03-30T04:33:29.000Z,177.0
2024-03-30T04:33:59.000Z,177.0
2024-03-30T04:34:35.000Z,176.0
2024-03-30T04:35:05.000Z,162.0
2024-03-30T04:35:30.000Z,105.0
2024-03-30T04:35:56.000Z,79.0
2024-03-30T04:36:25.000Z,57.0
2024-03-30T04:37:00.000Z,65.0
2024-03-30T04:37:30.000Z,52.0
2024-03-30T04:38:00.000Z,50.0
2024-03-30T04:38:35.000Z,42.0
2024-03-30T04:39:05.000Z,37.0
2024-03-30T04:39:38.000Z,28.0
2024-03-30T04:40:10.000Z,66.0
2024-03-30T04:40:31.000Z,104.0
2024-03-30T04:41:01.000Z,111.0
2024-03-30T04:41:30.000Z,139.0
2024-03-30T04:41:59.000Z,147.0
2024-03-30T04:42:15.000Z,151.0
2024-03-30T04:42:49.000Z,157.0
2024-03-30T04:43:20.000Z,189.0
2024-03-30T04:43:55.000Z,178.0
2024-03-30T04:44:24.000Z,178.0
2024-03-30T04:45:00.000Z,174.0
2024-03-30T04:45:29.000Z,162.0
2024-03-30T04:45:59.000Z,163.0
2024-03-30T04:46:44.000Z,178.0
2024-03-30T04:47:07.000Z,179.0
2024-03-30T04:47:34.000Z,172.0
2024-03-30T04:47:59.000Z,109.0
2024-03-30T04:48:26.000Z,151.0
2024-03-30T04:48:59.000Z,164.0
2024-03-30T04:49:39.000Z,108.0
2024-03-30T04:50:02.000Z,121.0
2024-03-30T04:50:30.000Z,158.0
2024-03-30T04:50:50.000Z,175.0
2024-03-30T04:51:19.000Z,143.0
2024-03-30T04:51:40.000Z,145.0
2024-03-30T04:52:09.000Z,150.0
2024-03-30T04:52:31.000Z,122.0
2024-03-30T04:53:00.000Z,119.0
2024-03-30T04:53:30.000Z,122.0
2024-03-30T04:54:00.000Z,129.0
2024-03-30T04:54:15.000Z,132.0
2024-03-30T04:54:49.000Z,121.0
2024-03-30T04:55:19.000Z,125.0
2024-03-30T04:55:54.000Z,113.0
2024-03-30T04:56:25.000Z,105.0
2024-03-30T04:57:00.000Z,78.0
2024-03-30T04:57:29.000Z,46.0
2024-03-30T04:58:00.000Z,74.0
2024-03-30T04:58:35.000Z,68.0
2024-03-30T04:59:04.000Z,130.0
2024-03-30T04:59:30.000Z,134.0
2024-03-30T04:59:54.000Z,112.0
2024-03-30T05:00:25.000Z,139.0
2024-03-30T05:01:00.000Z,44.0
2024-03-30T05:01:29.000Z,99.0
2024-03-30T05:02:09.000Z,349.0
2024-03-30T05:02:36.000Z,339.0
2024-03-30T05:03:06.000Z,350.0
2024-03-30T05:03:34.000Z,331.0
2024-03-30T05:03:59.000Z,348.0
2024-03-30T05:04:26.000Z,346.0
2024-03-30T05:05:00.000Z,340.0
2024-03-30T05:05:30.000Z,341.0
2024-03-30T05:06:00.000Z,346.0
2024-03-30T05:06:35.000Z,313.0
2024-03-30T05:07:04.000Z,335.0
2024-03-30T05:07:30.000Z,322.0
2024-03-30T05:07:55.000Z,306.0
2024-03-30T05:08:24.000Z,300.0
2024-03-30T05:09:00.000Z,326.0
2024-03-30T05:09:29.000Z,312.0
2024-03-30T05:10:09.000Z,312.0
2024-03-30T05:10:36.000Z,320.0
2024-03-30T05:11:07.000Z,310.0
2024-03-30T05:11:34.000Z,310.0
2024-03-30T05:11:59.000Z,305.0
2024-03-30T05:12:26.000Z,311.0
2024-03-30T05:12:59.000Z,308.0
2024-03-30T05:13:39.000Z,339.0
2024-03-30T05:14:02.000Z,355.0
2024-03-30T05:14:34.000Z,356.0
2024-03-30T05:15:05.000Z,9.0
2024-03-30T05:15:30.000Z,10.0
2024-03-30T05:15:54.000Z,10.0
2024-03-30T05:16:24.000Z,9.0
2024-03-30T05:17:00.000Z,355.0
2024-03-30T05:17:30.000Z,342.0
2024-03-30T05:18:00.000Z,315.0
2024-03-30T05:18:35.000Z,314.0
2024-03-30T05:19:05.000Z,311.0
2024-03-30T05:19:30.000Z,310.0
2024-03-30T05:19:56.000Z,301.0
2024-03-30T05:20:23.000Z,300.0
2024-03-30T05:21:00.000Z,300.0
2024-03-30T05:21:39.000Z,308.0
2024-03-30T05:22:02.000Z,336.0
2024-03-30T05:22:30.000Z,327.0
2024-03-30T05:22:59.000Z,327.0
2024-03-30T05:23:29.000Z,317.0
2024-03-30T05:23:56.000Z,313.0
2024-03-30T05:24:23.000Z,313.0
2024-03-30T05:24:49.000Z,308.0
2024-03-30T05:25:16.000Z,301.0
2024-03-30T05:25:46.000Z,300.0
2024-03-30T05:26:20.000Z,21.0
2024-03-30T05:26:51.000Z,22.0
2024-03-30T05:27:34.000Z,22.0
2024-03-30T05:27:59.000Z,21.0
2024-03-30T05:28:26.000Z,337.0
2024-03-30T05:29:00.000Z,1.0
2024-03-30T05:29:30.000Z,12.0
2024-03-30T05:30:00.000Z,12.0
2024-03-30T05:30:34.000Z,23.0
2024-03-30T05:31:04.000Z,7.0
2024-03-30T05:31:30.000Z,339.0
2024-03-30T05:31:55.000Z,347.0
2024-03-30T05:32:25.000Z,359.0
2024-03-30T05:33:00.000Z,6.0
2024-03-30T05:33:29.000Z,16.0
2024-03-30T05:34:05.000Z,21.0
2024-03-30T05:34:44.000Z,352.0
2024-03-30T05:35:05.000Z,23.0
2024-03-30T05:35:38.000Z,27.0
2024-03-30T05:36:09.000Z,25.0
2024-03-30T05:36:33.000Z,38.0
2024-03-30T05:36:59.000Z,41.0
2024-03-30T05:37:29.000Z,45.0
2024-03-30T05:38:00.000Z,52.0
2024-03-30T05:38:34.000Z,40.0
2024-03-30T05:39:05.000Z,61.0
2024-03-30T05:39:30.000Z,36.0
2024-03-30T05:39:56.000Z,45.0
2024-03-30T05:40:23.000Z,117.0
2024-03-30T05:40:49.000Z,107.0
2024-03-30T05:41:16.000Z,118.0
2024-03-30T05:41:39.000Z,122.0
2024-03-30T05:42:02.000Z,119.0
2024-03-30T05:42:30.000Z,97.0
2024-03-30T05:42:47.000Z,81.0
2024-03-30T05:43:04.000Z,85.0
2024-03-30T05:43:30.000Z,110.0
2024-03-30T05:43:56.000Z,135.0
2024-03-30T05:44:23.000Z,138.0
2024-03-30T05:44:49.000Z,130.0
2024-03-30T05:45:14.000Z,111.0
2024-03-30T05:45:45.000Z,131.0
2024-03-30T05:46:15.000Z,109.0
2024-03-30T05:46:49.000Z,108.0
2024-03-30T05:47:20.000Z,116.0
2024-03-30T05:47:38.000Z,83.0
2024-03-30T05:48:09.000Z,110.0
2024-03-30T05:48:31.000Z,113.0
2024-03-30T05:49:00.000Z,118.0
2024-03-30T05:49:29.000Z,29.0
2024-03-30T05:49:59.000Z,58.0
2024-03-30T05:50:44.000Z,67.0
2024-03-30T05:51:07.000Z,86.0
2024-03-30T05:51:31.000Z,88.0
2024-03-30T05:51:54.000Z,9.0
2024-03-30T05:52:24.000Z,335.0
2024-03-30T05:53:00.000Z,286.0
2024-03-30T05:53:29.000Z,227.0
2024-03-30T05:53:59.000Z,217.0
2024-03-30T05:54:30.000Z,214.0
2024-03-30T05:54:50.000Z,205.0
2024-03-30T05:55:20.000Z,200.0
2024-03-30T05:55:54.000Z,199.0
2024-03-30T05:56:26.000Z,199.0
2024-03-30T05:57:00.000Z,200.0
2024-03-30T05:57:30.000Z,200.0
2024-03-30T05:58:00.000Z,200.0
2024-03-30T05:58:35.000Z,200.0
2024-03-30T05:59:05.000Z,181.0
2024-03-30T05:59:30.000Z,181.0
2024-03-30T05:59:54.000Z,181.0
2024-03-30T06:00:25.000Z,181.0
2024-03-30T06:00:59.000Z,181.0
2024-03-30T06:01:29.000Z,181.0
2024-03-30T06:01:59.000Z,181.0
2024-03-30T06:02:35.000Z,181.0
2024-03-30T06:03:05.000Z,106.0
2024-03-30T06:03:30.000Z,135.0
2024-03-30T06:03:54.000Z,170.0
2024-03-30T06:04:24.000Z,174.0
2024-03-30T06:05:00.000Z,173.0
2024-03-30T06:05:29.000Z,172.0
2024-03-30T06:05:59.000Z,172.0
2024-03-30T06:06:44.000Z,172.0
2024-03-30T06:07:08.000Z,172.0
2024-03-30T06:07:34.000Z,159.0
2024-03-30T06:07:51.000Z,149.0
2024-03-30T06:08:09.000Z,153.0
2024-03-30T06:08:31.000Z,158.0
2024-03-30T06:08:59.000Z,245.0
2024-03-30T06:09:30.000Z,241.0
2024-03-30T06:10:00.000Z,210.0
2024-03-30T06:10:30.000Z,205.0
2024-03-30T06:10:50.000Z,256.0
2024-03-30T06:11:19.000Z,328.0
2024-03-30T06:11:39.000Z,246.0
2024-03-30T06:12:09.000Z,235.0
2024-03-30T06:12:41.000Z,215.0
2024-03-30T06:13:11.000Z,213.0
2024-03-30T06:13:39.000Z,209.0
2024-03-30T06:14:02.000Z,192.0
2024-03-30T06:14:30.000Z,137.0
2024-03-30T06:14:59.000Z,135.0
2024-03-30T06:15:20.000Z,162.0
2024-03-30T06:15:54.000Z,159.0